Time;durP1;ratioP1;P1;durP2;ratioP2;P2;SDS_P1;SDS_P2;PMS_P1;PMS_P2;Temp;Humidity;BMP_temperature;BMP_pressure;BME280_temperature;BME280_humidity;BME280_pressure;Samples;Min_cycle;Max_cycle;Signal;HPM_P1;HPM_P2
2023/09/04 00:00:00;;;;;;;4.15;3.80;;;;;;;20.04;79.04;96576.75;5028634;28;20233;-88
2023/09/04 00:02:27;;;;;;;4.43;4.03;;;;;;;20.05;79.10;96565.28;5027127;28;20226;-88
2023/09/04 00:04:53;;;;;;;5.03;4.30;;;;;;;20.07;78.84;96563.25;5028383;28;20209;-88
2023/09/04 00:07:20;;;;;;;4.88;4.38;;;;;;;20.12;78.45;96554.78;5028536;28;20606;-90
2023/09/04 00:09:46;;;;;;;4.45;4.05;;;;;;;20.08;78.79;96559.63;5028672;28;20205;-88
2023/09/04 00:12:13;;;;;;;3.60;3.20;;;;;;;20.10;78.61;96557.59;5028968;28;20232;-88
2023/09/04 00:14:40;;;;;;;3.47;3.17;;;;;;;20.02;78.82;96558.66;5028131;28;20213;-89
2023/09/04 00:17:07;;;;;;;3.33;2.70;;;;;;;19.97;78.89;96561.13;5026188;28;20207;-87
2023/09/04 00:19:34;;;;;;;5.07;3.13;;;;;;;19.96;79.02;96563.94;5028026;28;20213;-88
2023/09/04 00:22:00;;;;;;;3.40;3.10;;;;;;;19.92;79.33;96573.22;5027855;28;20301;-90
2023/09/04 00:24:27;;;;;;;3.63;3.22;;;;;;;19.79;79.97;96578.53;5028338;28;20206;-88
2023/09/04 00:26:53;;;;;;;3.63;3.13;;;;;;;19.75;80.48;96593.81;5028324;28;20198;-88
2023/09/04 00:29:20;;;;;;;4.95;3.08;;;;;;;19.76;80.68;96599.84;5028526;28;20241;-90
2023/09/04 00:31:47;;;;;;;4.07;3.00;;;;;;;19.83;80.17;96592.75;5027796;28;20217;-89
2023/09/04 00:34:14;;;;;;;3.10;2.90;;;;;;;19.80;80.26;96599.25;5026971;28;20206;-88
2023/09/04 00:36:41;;;;;;;3.40;3.10;;;;;;;19.79;80.09;96591.59;5027993;28;20245;-89
2023/09/04 00:39:07;;;;;;;3.20;2.90;;;;;;;19.72;80.38;96599.47;5028409;28;20690;-89
2023/09/04 00:41:34;;;;;;;3.28;2.97;;;;;;;19.76;80.53;96612.94;5028609;28;20218;-88
2023/09/04 00:44:00;;;;;;;2.95;2.67;;;;;;;19.75;80.27;96606.91;5036359;28;20260;-88
2023/09/04 00:46:27;;;;;;;3.28;2.90;;;;;;;19.74;80.23;96607.09;5028007;28;20198;-85
2023/09/04 00:48:55;;;;;;;3.30;3.00;;;;;;;19.71;80.00;96602.28;5028529;28;20202;-85
2023/09/04 00:51:21;;;;;;;4.00;3.20;;;;;;;19.73;80.08;96608.09;5026448;28;20707;-87
2023/09/04 00:53:49;;;;;;;3.50;3.17;;;;;;;19.54;81.09;96625.47;5028031;28;20198;-89
2023/09/04 00:56:18;;;;;;;3.90;3.10;;;;;;;19.58;81.06;96618.84;5028284;28;20215;-89
2023/09/04 00:58:44;;;;;;;3.67;3.00;;;;;;;19.63;80.93;96619.78;5027803;28;20202;-89
2023/09/04 01:01:11;;;;;;;3.30;3.00;;;;;;;19.69;80.33;96609.53;5026971;28;20218;-88
2023/09/04 01:03:38;;;;;;;3.10;2.90;;;;;;;19.70;80.17;96601.47;5027674;28;20209;-89
2023/09/04 01:06:06;;;;;;;3.35;3.05;;;;;;;19.71;79.93;96594.44;5026666;28;20198;-88
2023/09/04 01:08:32;;;;;;;3.40;3.10;;;;;;;19.72;79.90;96591.63;5027794;28;20202;-88
2023/09/04 01:11:07;;;;;;;3.78;3.47;;;;;;;19.62;79.88;96594.69;5027960;28;20317;-89
2023/09/04 01:13:41;;;;;;;3.42;3.13;;;;;;;19.56;80.59;96605.97;5027968;28;20201;-89
2023/09/04 01:16:08;;;;;;;3.40;3.10;;;;;;;19.54;81.29;96617.63;5029676;28;20281;-88
2023/09/04 01:18:36;;;;;;;3.50;3.20;;;;;;;19.51;81.78;96623.28;5031312;28;20214;-89
2023/09/04 01:21:04;;;;;;;3.05;2.85;;;;;;;19.58;81.23;96619.63;5031628;28;20637;-88
2023/09/04 01:23:32;;;;;;;3.50;3.20;;;;;;;19.54;81.19;96615.03;5029341;28;20206;-88
2023/09/04 01:26:04;;;;;;;3.08;2.88;;;;;;;19.44;81.66;96615.41;5031003;28;20220;-88
2023/09/04 01:28:40;;;;;;;4.95;2.97;;;;;;;19.37;81.98;96624.31;5030939;28;20277;-88
2023/09/04 01:31:14;;;;;;;3.30;3.10;;;;;;;19.20;82.94;96635.19;5031483;28;20238;-88
2023/09/04 01:33:44;;;;;;;3.40;3.10;;;;;;;19.14;83.36;96643.03;5031126;28;20212;-89
2023/09/04 01:36:16;;;;;;;3.72;3.05;;;;;;;19.15;83.68;96650.66;5031099;28;20202;-88
2023/09/04 01:38:44;;;;;;;3.08;2.88;;;;;;;19.23;83.50;96639.22;5029692;28;20656;-88
2023/09/04 01:41:11;;;;;;;2.47;2.28;;;;;;;19.31;83.12;96631.94;5030724;28;20218;-88
2023/09/04 01:43:37;;;;;;;3.03;2.83;;;;;;;19.28;83.10;96619.28;5046812;28;20197;-89
2023/09/04 01:46:04;;;;;;;2.67;2.47;;;;;;;19.33;82.54;96606.44;5044301;28;20201;-86
2023/09/04 01:48:30;;;;;;;2.90;2.70;;;;;;;19.39;81.57;96596.16;5031012;28;20197;-88
2023/09/04 01:50:57;;;;;;;3.00;2.80;;;;;;;19.34;81.91;96594.16;5030800;28;20700;-88
2023/09/04 01:53:25;;;;;;;3.15;2.88;;;;;;;19.32;82.12;96593.56;5030781;28;20549;-84
2023/09/04 01:55:51;;;;;;;3.08;2.88;;;;;;;19.26;82.36;96597.00;5026995;28;20206;-88
2023/09/04 01:58:18;;;;;;;3.45;3.15;;;;;;;19.20;82.68;96606.47;5011368;28;20236;-91
2023/09/04 02:00:46;;;;;;;3.67;2.92;;;;;;;19.22;82.94;96609.69;5030932;28;20202;-88
2023/09/04 02:03:13;;;;;;;3.03;2.83;;;;;;;19.11;83.69;96615.53;5030995;28;20202;-88
2023/09/04 02:05:39;;;;;;;2.83;2.63;;;;;;;19.13;83.58;96617.94;5030740;28;20190;-85
2023/09/04 02:08:07;;;;;;;3.30;3.00;;;;;;;19.17;83.08;96612.09;5030928;28;20209;-89
2023/09/04 02:10:35;;;;;;;3.40;3.10;;;;;;;19.14;82.86;96601.25;5028496;28;20206;-88
2023/09/04 02:13:01;;;;;;;3.42;3.10;;;;;;;18.98;84.21;96618.97;5030154;28;20691;-89
2023/09/04 02:15:27;;;;;;;3.53;3.22;;;;;;;18.98;84.00;96618.97;5030233;28;20198;-88
2023/09/04 02:17:54;;;;;;;3.58;3.30;;;;;;;19.02;83.80;96613.34;5029733;28;20213;-85
2023/09/04 02:20:21;;;;;;;3.83;3.05;;;;;;;19.04;83.76;96606.94;5030587;28;20230;-85
2023/09/04 02:22:47;;;;;;;3.00;2.78;;;;;;;18.95;84.35;96623.78;5030293;28;20734;-89
2023/09/04 02:25:13;;;;;;;3.13;2.92;;;;;;;18.96;84.74;96622.78;5029842;28;20285;-88
2023/09/04 02:27:41;;;;;;;3.75;3.20;;;;;;;19.00;84.63;96625.81;5029248;28;20213;-87
2023/09/04 02:30:08;;;;;;;2.95;2.75;;;;;;;18.95;84.74;96629.00;5030315;28;20198;-88
2023/09/04 02:32:35;;;;;;;3.63;3.33;;;;;;;18.98;84.54;96621.59;5026934;28;20245;-88
2023/09/04 02:35:01;;;;;;;3.85;2.83;;;;;;;18.98;84.58;96613.75;5037978;28;20210;-88
2023/09/04 02:37:28;;;;;;;3.10;2.90;;;;;;;19.01;84.62;96609.13;5029712;28;20198;-87
2023/09/04 02:39:54;;;;;;;4.75;3.42;;;;;;;19.07;84.04;96598.66;5029624;28;20206;-87
2023/09/04 02:42:21;;;;;;;3.13;2.90;;;;;;;19.09;83.60;96590.63;5030132;28;20221;-88
2023/09/04 02:44:48;;;;;;;5.80;3.50;;;;;;;18.86;84.94;96609.34;5029050;28;20579;-88
2023/09/04 02:47:15;;;;;;;3.13;2.88;;;;;;;18.78;85.14;96614.78;5029584;28;20206;-88
2023/09/04 02:49:42;;;;;;;3.20;3.00;;;;;;;18.61;86.39;96640.47;5029840;28;20206;-87
2023/09/04 02:52:09;;;;;;;3.60;3.30;;;;;;;18.62;86.50;96647.31;5029266;28;20222;-89
2023/09/04 02:54:35;;;;;;;3.65;3.35;;;;;;;18.71;86.60;96642.66;5029325;28;20300;-87
2023/09/04 02:57:01;;;;;;;3.35;3.15;;;;;;;18.74;86.08;96640.47;5029066;28;20201;-87
2023/09/04 02:59:29;;;;;;;3.58;3.05;;;;;;;18.70;86.50;96647.09;5028125;28;20209;-90
2023/09/04 03:01:57;;;;;;;3.17;2.97;;;;;;;18.70;86.62;96649.69;5029359;28;20233;-88
2023/09/04 03:04:23;;;;;;;3.97;3.67;;;;;;;18.80;86.18;96652.72;5029883;28;20202;-88
2023/09/04 03:06:50;;;;;;;3.53;3.33;;;;;;;18.65;86.80;96659.97;5028922;28;20202;-88
2023/09/04 03:09:16;;;;;;;4.10;3.70;;;;;;;18.49;88.16;96683.75;5029239;28;20244;-88
2023/09/04 03:11:43;;;;;;;4.28;3.88;;;;;;;18.33;89.69;96710.22;5028848;28;20221;-87
2023/09/04 03:14:09;;;;;;;5.82;4.20;;;;;;;18.31;89.94;96710.41;5029583;28;20202;-88
2023/09/04 03:16:35;;;;;;;4.15;3.85;;;;;;;18.35;89.94;96701.19;5027589;28;20205;-88
2023/09/04 03:19:03;;;;;;;4.30;4.00;;;;;;;18.36;90.45;96709.84;5028090;28;20622;-89
2023/09/04 03:21:31;;;;;;;4.53;4.13;;;;;;;18.34;90.48;96717.03;5028953;28;20714;-88
2023/09/04 03:23:57;;;;;;;4.68;4.20;;;;;;;18.33;90.49;96715.44;5029050;28;20248;-88
2023/09/04 03:26:24;;;;;;;4.40;4.10;;;;;;;18.38;90.26;96702.63;5028792;28;20613;-88
2023/09/04 03:28:50;;;;;;;4.70;4.30;;;;;;;18.41;89.86;96704.84;5029180;28;20604;-87
2023/09/04 03:31:17;;;;;;;4.60;4.20;;;;;;;18.33;89.61;96703.19;5026550;28;20237;-88
2023/09/04 03:33:43;;;;;;;4.32;4.03;;;;;;;18.26;89.88;96695.38;5028829;28;20205;-90
2023/09/04 03:36:11;;;;;;;4.75;4.35;;;;;;;18.33;89.74;96691.97;5029235;28;20198;-88
2023/09/04 03:38:38;;;;;;;4.68;4.32;;;;;;;18.41;88.92;96689.19;5028400;28;20205;-88
2023/09/04 03:41:04;;;;;;;4.60;4.28;;;;;;;18.41;88.81;96690.00;5029290;28;20226;-88
2023/09/04 03:43:31;;;;;;;4.63;3.95;;;;;;;18.49;88.31;96684.56;5029082;28;20205;-88
2023/09/04 03:45:57;;;;;;;4.15;3.85;;;;;;;18.67;87.04;96667.56;5023474;28;20628;-88
2023/09/04 03:48:24;;;;;;;4.40;4.10;;;;;;;18.74;86.05;96657.94;5023303;28;20198;-85
2023/09/04 03:50:50;;;;;;;4.38;4.05;;;;;;;18.70;86.18;96654.13;5028736;28;20573;-85
2023/09/04 03:53:18;;;;;;;4.65;4.25;;;;;;;18.60;86.06;96657.94;5028214;28;20230;-86
2023/09/04 03:55:44;;;;;;;5.10;4.60;;;;;;;18.40;87.15;96667.53;5028408;28;20285;-85
2023/09/04 03:58:11;;;;;;;4.97;4.53;;;;;;;18.39;87.43;96678.16;5028274;28;20206;-86
2023/09/04 04:00:37;;;;;;;4.90;4.60;;;;;;;18.14;88.94;96701.34;5028378;28;20214;-85
2023/09/04 04:03:04;;;;;;;5.00;4.60;;;;;;;17.97;90.38;96723.53;5026429;28;20190;-85
2023/09/04 04:05:31;;;;;;;5.05;4.50;;;;;;;18.08;90.25;96733.44;5027965;28;20198;-86
2023/09/04 04:07:57;;;;;;;4.72;4.32;;;;;;;18.16;89.74;96715.00;5028208;28;20212;-86
2023/09/04 04:10:25;;;;;;;4.85;4.32;;;;;;;18.19;89.08;96717.22;5027238;28;20202;-86
2023/09/04 04:12:52;;;;;;;5.00;4.60;;;;;;;18.12;89.62;96726.81;5028312;28;20233;-85
2023/09/04 04:15:19;;;;;;;4.72;4.32;;;;;;;18.06;89.83;96725.81;5028391;28;20229;-86
2023/09/04 04:17:45;;;;;;;4.88;4.47;;;;;;;18.09;89.67;96728.00;5027809;28;20224;-86
2023/09/04 04:20:15;;;;;;;4.93;4.53;;;;;;;18.18;89.21;96723.44;5027072;28;20206;-87
2023/09/04 04:22:45;;;;;;;5.10;4.70;;;;;;;18.03;89.87;96725.38;5028374;28;20655;-86
2023/09/04 04:25:11;;;;;;;4.80;4.40;;;;;;;17.77;91.75;96755.53;5027774;28;20205;-86
2023/09/04 04:27:39;;;;;;;5.13;4.72;;;;;;;17.80;92.31;96775.19;5028258;28;20225;-86
2023/09/04 04:30:07;;;;;;;4.85;4.35;;;;;;;17.81;91.86;96763.78;5027801;28;20194;-85
2023/09/04 04:32:33;;;;;;;4.82;4.43;;;;;;;17.87;92.00;96770.81;5027934;28;20265;-86
2023/09/04 04:35:00;;;;;;;5.13;4.72;;;;;;;17.89;91.09;96754.00;5027005;28;20202;-87
2023/09/04 04:37:27;;;;;;;5.22;4.75;;;;;;;17.93;90.68;96744.78;5027670;28;20431;-86
2023/09/04 04:39:53;;;;;;;5.80;5.30;;;;;;;17.88;90.97;96741.97;5026898;28;20187;-86
2023/09/04 04:42:20;;;;;;;5.50;5.10;;;;;;;17.91;90.80;96740.75;5033137;28;20249;-86
2023/09/04 04:44:48;;;;;;;6.60;5.35;;;;;;;17.94;90.25;96729.94;5047672;28;20213;-87
2023/09/04 04:47:14;;;;;;;5.35;4.63;;;;;;;18.09;89.68;96714.97;5047128;28;20194;-86
2023/09/04 04:49:40;;;;;;;5.57;5.07;;;;;;;17.99;89.73;96718.94;5048304;28;20209;-87
2023/09/04 04:52:07;;;;;;;5.25;4.85;;;;;;;18.01;89.90;96729.97;5031644;28;20241;-85
2023/09/04 04:54:33;;;;;;;5.70;4.90;;;;;;;18.07;89.33;96724.00;5032184;28;20209;-86
2023/09/04 04:57:00;;;;;;;5.32;4.90;;;;;;;18.06;89.13;96725.81;5031858;28;20683;-87
2023/09/04 04:59:28;;;;;;;6.10;5.53;;;;;;;18.00;89.90;96734.38;5032576;28;20206;-86
2023/09/04 05:01:58;;;;;;;5.50;5.00;;;;;;;18.08;89.83;96741.25;5026021;28;20218;-87
2023/09/04 05:04:25;;;;;;;5.78;5.18;;;;;;;18.13;89.91;96744.84;5024087;28;20595;-86
2023/09/04 05:06:51;;;;;;;5.55;5.05;;;;;;;18.06;89.60;96732.81;5031752;28;20285;-85
2023/09/04 05:09:18;;;;;;;6.20;5.68;;;;;;;18.09;89.62;96729.81;5029990;28;20210;-86
2023/09/04 05:11:44;;;;;;;11.80;10.73;;;;;;;18.02;90.38;96740.22;5031992;28;20610;-86
2023/09/04 05:14:40;;;;;;;6.18;5.68;;;;;;;18.09;90.15;96735.81;5032062;28;20209;-87
2023/09/04 05:17:11;;;;;;;5.65;5.25;;;;;;;18.33;89.32;96734.50;5031474;28;20656;-86
2023/09/04 05:19:38;;;;;;;6.50;5.22;;;;;;;18.30;89.32;96720.03;5031652;28;20213;-87
2023/09/04 05:22:05;;;;;;;5.90;5.40;;;;;;;18.37;89.07;96727.88;5031796;28;20234;-86
2023/09/04 05:24:31;;;;;;;6.07;5.57;;;;;;;18.35;88.74;96719.47;5029978;28;20302;-87
2023/09/04 05:26:58;;;;;;;5.53;5.03;;;;;;;18.40;88.93;96711.84;5031346;28;20218;-86
2023/09/04 05:29:24;;;;;;;6.22;5.72;;;;;;;18.41;88.85;96712.66;5031522;28;20203;-86
2023/09/04 05:31:51;;;;;;;5.72;5.10;;;;;;;18.41;89.09;96730.91;5032581;28;20632;-86
2023/09/04 05:34:19;;;;;;;5.70;5.20;;;;;;;18.53;89.33;96726.72;5031805;28;20206;-86
2023/09/04 05:36:49;;;;;;;5.30;4.88;;;;;;;18.70;88.55;96730.59;5031949;28;20203;-88
2023/09/04 05:39:15;;;;;;;5.93;4.90;;;;;;;18.71;88.16;96716.53;5031718;28;20210;-86
2023/09/04 05:41:42;;;;;;;5.70;5.30;;;;;;;18.78;87.00;96698.28;5030393;28;20257;-87
2023/09/04 05:44:12;;;;;;;5.82;5.32;;;;;;;18.68;87.68;96703.88;5052199;28;20240;-87
2023/09/04 05:46:38;;;;;;;5.47;5.05;;;;;;;18.82;87.46;96708.13;5051385;28;20224;-85
2023/09/04 05:49:14;;;;;;;6.70;5.95;;;;;;;18.78;87.76;96725.19;5036333;28;20213;-86
2023/09/04 05:51:41;;;;;;;6.05;5.50;;;;;;;18.82;87.60;96715.97;5031118;28;20592;-86
2023/09/04 05:54:08;;;;;;;16.60;15.02;;;;;;;18.94;87.31;96708.31;5031113;28;20205;-86
2023/09/04 05:56:34;;;;;;;10.27;9.38;;;;;;;19.07;86.86;96703.09;5028755;28;20678;-86
2023/09/04 05:59:01;;;;;;;8.32;7.53;;;;;;;19.20;86.46;96697.88;5030986;28;20211;-86
2023/09/04 06:01:27;;;;;;;6.15;5.55;;;;;;;19.29;85.22;96667.09;5031238;28;20222;-85
2023/09/04 06:03:54;;;;;;;6.72;5.90;;;;;;;19.19;85.31;96671.97;5030756;28;20202;-86
2023/09/04 06:06:20;;;;;;;6.25;5.50;;;;;;;19.16;85.81;96677.59;5030641;28;20206;-86
2023/09/04 06:08:48;;;;;;;6.03;5.50;;;;;;;19.01;85.69;96675.19;5030720;28;20571;-87
2023/09/04 06:11:16;;;;;;;6.30;5.70;;;;;;;18.97;86.89;96692.25;5030998;28;20330;-85
2023/09/04 06:13:43;;;;;;;6.20;5.60;;;;;;;19.00;87.42;96688.44;5029159;28;20222;-86
2023/09/04 06:16:09;;;;;;;5.78;5.28;;;;;;;19.20;86.13;96697.06;5030355;28;20206;-86
2023/09/04 06:18:41;;;;;;;7.07;6.15;;;;;;;19.27;85.33;96672.53;5029266;28;20694;-86
2023/09/04 06:21:14;;;;;;;7.15;6.20;;;;;;;19.31;85.01;96665.91;5030547;28;20232;-86
2023/09/04 06:23:40;;;;;;;7.38;6.68;;;;;;;19.33;85.66;96676.94;5030052;28;20253;-86
2023/09/04 06:26:08;;;;;;;8.00;7.25;;;;;;;19.26;85.83;96680.56;5030252;28;20209;-86
2023/09/04 06:28:35;;;;;;;8.80;8.10;;;;;;;19.36;85.62;96680.16;5029108;28;20209;-86
2023/09/04 06:31:03;;;;;;;7.35;6.65;;;;;;;19.40;85.78;96681.34;5030133;28;20252;-85
2023/09/04 06:33:33;;;;;;;7.13;6.45;;;;;;;19.42;85.65;96674.13;5030147;28;20229;-86
2023/09/04 06:36:00;;;;;;;7.25;6.55;;;;;;;19.53;85.00;96679.53;5030281;28;20288;-86
2023/09/04 06:38:26;;;;;;;6.75;6.15;;;;;;;19.66;84.25;96653.34;5030058;28;20206;-86
2023/09/04 06:40:57;;;;;;;6.05;5.55;;;;;;;19.75;83.89;96653.13;5029987;28;20206;-84
2023/09/04 06:43:25;;;;;;;7.57;5.78;;;;;;;19.78;83.83;96653.53;5044133;28;20574;-86
2023/09/04 06:45:51;;;;;;;6.90;5.28;;;;;;;19.86;83.50;96653.28;5031844;28;20213;-86
2023/09/04 06:48:18;;;;;;;6.10;5.60;;;;;;;20.07;82.64;96641.69;5029964;28;20212;-86
2023/09/04 06:50:44;;;;;;;6.00;5.50;;;;;;;20.21;81.46;96611.84;5030201;28;20590;-85
2023/09/04 06:53:18;;;;;;;9.05;5.40;;;;;;;20.30;80.59;96596.69;5029124;28;20219;-85
2023/09/04 06:55:48;;;;;;;6.32;5.45;;;;;;;20.45;79.76;96585.94;5029535;28;20281;-85
2023/09/04 06:58:14;;;;;;;7.18;6.47;;;;;;;20.44;80.17;96589.56;5029631;28;20206;-87
2023/09/04 07:00:42;;;;;;;7.72;7.03;;;;;;;20.60;80.33;96594.25;5027766;28;20722;-85
2023/09/04 07:03:09;;;;;;;7.03;5.50;;;;;;;20.80;78.56;96555.63;5029140;28;20233;-86
2023/09/04 07:05:35;;;;;;;5.38;4.88;;;;;;;20.89;78.09;96543.06;5029973;28;20698;-87
2023/09/04 07:08:04;;;;;;;4.93;4.43;;;;;;;21.09;77.36;96527.94;5031163;28;20209;-86
2023/09/04 07:10:31;;;;;;;5.10;4.55;;;;;;;21.16;76.25;96505.09;5030231;28;20206;-86
2023/09/04 07:12:59;;;;;;;5.40;4.20;;;;;;;21.25;75.97;96509.03;5029024;28;20226;-87
2023/09/04 07:15:26;;;;;;;4.45;4.13;;;;;;;21.42;74.93;96484.81;5029897;28;20213;-86
2023/09/04 07:18:00;;;;;;;4.68;4.15;;;;;;;21.42;73.64;96450.75;5027630;28;20214;-86
2023/09/04 07:20:27;;;;;;;4.63;3.90;;;;;;;21.57;74.67;96480.78;5029916;28;20205;-87
2023/09/04 07:22:53;;;;;;;4.32;3.58;;;;;;;21.70;73.21;96450.97;5036100;28;20236;-85
2023/09/04 07:25:21;;;;;;;4.65;3.60;;;;;;;21.85;72.79;96442.66;5030233;28;20195;-87
2023/09/04 07:27:47;;;;;;;7.35;4.03;;;;;;;21.96;71.83;96416.44;5030585;28;20198;-85
2023/09/04 07:30:14;;;;;;;3.90;3.50;;;;;;;22.08;70.74;96395.50;5030095;28;20201;-85
2023/09/04 07:32:40;;;;;;;4.00;3.58;;;;;;;22.19;70.31;96378.16;5028492;28;20230;-87
2023/09/04 07:35:09;;;;;;;10.35;9.45;;;;;;;22.32;69.83;96370.06;5029757;28;20231;-89
2023/09/04 07:37:36;;;;;;;5.75;3.63;;;;;;;22.44;68.43;96336.69;5029368;28;20206;-89
2023/09/04 07:40:04;;;;;;;3.65;3.35;;;;;;;22.61;68.45;96340.19;5029565;28;20204;-88
2023/09/04 07:42:33;;;;;;;3.55;3.28;;;;;;;22.78;67.72;96321.88;5036241;28;20245;-89
2023/09/04 07:45:02;;;;;;;5.45;3.20;;;;;;;23.07;67.27;96325.31;5049853;28;20201;-89
2023/09/04 07:47:29;;;;;;;3.75;3.38;;;;;;;23.23;65.58;96271.97;5046356;28;20624;-89
2023/09/04 07:49:55;;;;;;;7.72;3.55;;;;;;;23.37;64.92;96252.19;5028026;28;20579;-90
2023/09/04 07:52:23;;;;;;;5.85;3.30;;;;;;;23.60;64.28;96238.09;5015667;28;20261;-89
2023/09/04 07:54:50;;;;;;;3.50;3.20;;;;;;;23.80;64.11;96242.03;5010468;28;20207;-89
2023/09/04 07:57:17;;;;;;;5.88;3.65;;;;;;;23.95;62.54;96200.13;5009642;28;20297;-89
2023/09/04 07:59:58;;;;;;;6.30;3.33;;;;;;;23.98;62.87;96184.66;5010985;28;20261;-90
2023/09/04 08:02:24;;;;;;;4.00;3.60;;;;;;;24.02;61.36;96138.41;5010984;28;20716;-89
2023/09/04 08:04:51;;;;;;;3.80;3.33;;;;;;;24.22;61.36;96156.25;5010417;28;20202;-89
2023/09/04 08:07:17;;;;;;;4.40;3.40;;;;;;;24.05;61.75;96151.03;5029597;28;20229;-89
2023/09/04 08:09:45;;;;;;;3.55;3.22;;;;;;;23.95;61.80;96158.84;5029393;28;20205;-89
2023/09/04 08:12:15;;;;;;;3.38;3.08;;;;;;;24.01;61.26;96134.19;5030888;28;20228;-89
2023/09/04 08:14:51;;;;;;;;;;;;;;;;;;;;;
2023/09/04 08:17:18;;;;;;;3.28;3.00;;;;;;;24.37;61.92;96168.78;5029511;28;20209;-90
2023/09/04 08:19:51;;;;;;;3.58;3.13;;;;;;;24.53;60.77;96127.56;5031246;28;20686;-90
2023/09/04 08:22:18;;;;;;;7.45;3.30;;;;;;;24.58;60.42;96098.66;5027938;28;20222;-88
2023/09/04 08:24:48;;;;;;;3.67;3.13;;;;;;;24.68;60.47;96101.34;5030080;28;20210;-89
2023/09/04 08:27:14;;;;;;;3.70;2.85;;;;;;;24.70;58.91;96059.75;5033134;28;20248;-89
2023/09/04 08:29:45;;;;;;;3.72;3.42;;;;;;;24.69;59.96;96076.59;5032649;28;20197;-89
2023/09/04 08:32:11;;;;;;;3.78;3.45;;;;;;;24.62;60.29;96087.38;5032475;28;20318;-89
2023/09/04 08:34:38;;;;;;;3.55;3.10;;;;;;;24.83;59.73;96076.94;5032536;28;20841;-88
2023/09/04 08:37:04;;;;;;;5.22;2.90;;;;;;;25.02;58.75;96028.88;5031115;28;20201;-88
2023/09/04 08:39:31;;;;;;;3.05;2.85;;;;;;;24.91;58.65;96035.13;5032311;28;20198;-88
2023/09/04 08:42:07;;;;;;;3.20;2.70;;;;;;;25.09;58.35;95999.66;5034981;28;20628;-89
2023/09/04 08:44:36;;;;;;;3.63;2.90;;;;;;;25.06;58.17;95992.28;5041814;28;20205;-89
2023/09/04 08:47:10;;;;;;;2.95;2.53;;;;;;;25.43;57.33;95974.47;5032229;28;20268;-89
2023/09/04 08:49:37;;;;;;;3.33;3.08;;;;;;;25.61;56.52;95938.09;5032351;28;20216;-89
2023/09/04 08:52:07;;;;;;;4.15;2.72;;;;;;;25.80;56.27;95921.50;5032229;28;20287;-88
2023/09/04 08:54:34;;;;;;;4.47;3.05;;;;;;;25.94;55.94;95911.25;5030899;28;20226;-88
2023/09/04 08:57:02;;;;;;;5.97;2.80;;;;;;;25.88;55.80;95904.38;5032356;28;20202;-88
2023/09/04 08:59:29;;;;;;;3.83;3.42;;;;;;;25.65;56.21;95910.16;5032134;28;20202;-89
2023/09/04 09:01:56;;;;;;;4.72;4.32;;;;;;;26.05;55.83;95906.72;5031800;28;20225;-88
2023/09/04 09:04:25;;;;;;;2.95;2.70;;;;;;;26.17;56.05;95917.03;5031755;28;20194;-88
2023/09/04 09:06:54;;;;;;;3.22;2.92;;;;;;;26.09;55.27;95884.03;5032081;28;20198;-89
2023/09/04 09:09:21;;;;;;;2.90;2.70;;;;;;;26.25;55.19;95869.72;5031141;28;20210;-89
2023/09/04 09:11:53;;;;;;;2.13;2.03;;;;;;;26.35;53.80;95790.53;5029955;28;20238;-89
2023/09/04 09:14:37;;;;;;;3.40;2.60;;;;;;;26.28;53.16;95778.66;5031991;28;20297;-89
2023/09/04 09:17:05;;;;;;;2.50;2.30;;;;;;;26.38;52.66;95739.78;5030991;28;20733;-88
2023/09/04 09:19:36;;;;;;;2.30;2.10;;;;;;;26.39;52.33;95716.81;5031805;28;20671;-89
2023/09/04 09:22:15;;;;;;;2.50;2.35;;;;;;;26.55;51.68;95696.41;5031345;28;20222;-88
2023/09/04 09:24:53;;;;;;;3.35;2.47;;;;;;;26.88;52.24;95718.63;5030868;28;20205;-88
2023/09/04 09:27:33;;;;;;;2.15;2.00;;;;;;;26.99;51.10;95669.94;5029454;28;20201;-90
2023/09/04 09:30:05;;;;;;;2.85;1.98;;;;;;;27.02;49.74;95576.88;5031439;28;20209;-88
2023/09/04 09:32:34;;;;;;;2.10;1.90;;;;;;;26.89;50.25;95609.22;5031601;28;20237;-89
2023/09/04 09:35:06;;;;;;;3.50;2.25;;;;;;;26.76;48.65;95537.44;5031177;28;20222;-89
2023/09/04 09:37:34;;;;;;;2.30;2.10;;;;;;;26.79;46.72;95420.66;5030672;28;20194;-88
2023/09/04 09:40:00;;;;;;;2.10;2.00;;;;;;;26.53;43.63;95249.59;5031348;28;20206;-88
2023/09/04 09:42:29;;;;;;;2.05;1.90;;;;;;;26.57;43.45;95240.00;5031245;28;20257;-89
2023/09/04 09:44:56;;;;;;;1.90;1.80;;;;;;;26.69;44.76;95332.81;5030894;28;20241;-88
2023/09/04 09:47:24;;;;;;;2.15;1.95;;;;;;;26.78;44.40;95297.53;5030845;28;20202;-89
2023/09/04 09:49:51;;;;;;;2.30;2.10;;;;;;;26.82;46.77;95465.00;5030730;28;20218;-89
2023/09/04 09:52:26;;;;;;;2.50;2.30;;;;;;;27.05;45.89;95415.88;5030979;28;20257;-89
2023/09/04 09:54:53;;;;;;;2.10;2.00;;;;;;;26.72;42.71;95206.25;5031117;28;20224;-88
2023/09/04 09:57:25;;;;;;;2.65;2.20;;;;;;;26.74;44.13;95314.28;5030623;28;20586;-89
2023/09/04 09:59:52;;;;;;;2.10;1.98;;;;;;;26.58;44.03;95316.31;5027397;28;20587;-88
2023/09/04 10:02:22;;;;;;;2.08;1.95;;;;;;;26.66;45.06;95351.88;5010840;28;20600;-89
2023/09/04 10:04:50;;;;;;;2.20;1.88;;;;;;;26.46;44.10;95295.59;5011358;28;20203;-88
2023/09/04 10:07:18;;;;;;;2.30;2.10;;;;;;;26.45;44.60;95317.00;5011285;28;20203;-88
2023/09/04 10:09:47;;;;;;;2.10;2.00;;;;;;;26.59;45.63;95377.84;5010803;28;20198;-88
2023/09/04 10:12:21;;;;;;;2.03;1.92;;;;;;;26.51;46.73;95452.41;5010776;28;20609;-88
2023/09/04 10:14:50;;;;;;;3.28;1.90;;;;;;;26.64;44.55;95349.50;5018703;28;20225;-88
2023/09/04 10:17:21;;;;;;;2.20;2.00;;;;;;;26.73;44.25;95308.19;5029593;28;20608;-89
2023/09/04 10:19:53;;;;;;;6.38;5.88;;;;;;;26.62;44.21;95304.09;5030947;28;20217;-88
2023/09/04 10:22:26;;;;;;;4.05;3.72;;;;;;;26.67;45.31;95387.78;5030128;28;20253;-89
2023/09/04 10:25:00;;;;;;;2.60;2.17;;;;;;;26.76;44.16;95288.31;5029989;28;20204;-89
2023/09/04 10:27:32;;;;;;;2.20;2.00;;;;;;;27.05;44.61;95318.06;5030248;28;20284;-90
2023/09/04 10:30:04;;;;;;;2.92;1.95;;;;;;;27.30;45.02;95361.06;5028856;28;20198;-88
2023/09/04 10:32:31;;;;;;;2.40;2.20;;;;;;;27.40;44.85;95337.91;5027820;28;20234;-88
2023/09/04 10:35:01;;;;;;;2.28;2.00;;;;;;;27.36;44.52;95323.69;5029803;28;20225;-88
2023/09/04 10:37:31;;;;;;;3.47;1.95;;;;;;;27.57;44.46;95336.56;5030067;28;20202;-88
2023/09/04 10:39:59;;;;;;;2.80;1.95;;;;;;;27.42;44.34;95303.22;5030173;28;20190;-89
2023/09/04 10:42:29;;;;;;;4.72;1.95;;;;;;;27.48;43.92;95312.66;5029829;28;20222;-88
2023/09/04 10:44:56;;;;;;;5.28;2.10;;;;;;;27.51;44.06;95301.50;5029981;28;20205;-89
2023/09/04 10:47:23;;;;;;;2.20;2.05;;;;;;;27.50;44.34;95329.03;5027446;28;20198;-88
2023/09/04 10:49:50;;;;;;;4.35;1.92;;;;;;;27.25;45.17;95337.34;5029123;28;20210;-88
2023/09/04 10:52:18;;;;;;;2.28;2.08;;;;;;;27.10;44.89;95346.31;5029157;28;20769;-89
2023/09/04 10:54:44;;;;;;;4.35;2.20;;;;;;;27.14;46.19;95400.16;5029651;28;20296;-88
2023/09/04 10:57:12;;;;;;;2.38;2.28;;;;;;;27.05;45.10;95349.00;5029062;28;20213;-88
2023/09/04 11:00:01;;;;;;;4.20;2.33;;;;;;;26.87;43.93;95291.63;5027968;28;20202;-88
2023/09/04 11:02:29;;;;;;;2.45;2.13;;;;;;;27.08;44.45;95309.56;5027780;28;20313;-88
2023/09/04 11:04:55;;;;;;;2.22;2.05;;;;;;;27.26;44.88;95345.00;5028978;28;20198;-88
2023/09/04 11:07:29;;;;;;;2.83;2.63;;;;;;;27.45;44.10;95315.88;5029393;28;20202;-88
2023/09/04 11:10:17;;;;;;;4.40;2.10;;;;;;;27.44;44.14;95298.44;5029280;28;20194;-88
2023/09/04 11:12:45;;;;;;;2.53;2.00;;;;;;;27.42;44.81;95311.16;5029148;28;20218;-88
2023/09/04 11:15:15;;;;;;;2.13;2.03;;;;;;;27.40;44.18;95273.66;5033029;28;20728;-88
2023/09/04 11:17:45;;;;;;;2.40;2.20;;;;;;;27.34;43.46;95235.13;5009276;28;20703;-88
2023/09/04 11:20:14;;;;;;;2.20;2.00;;;;;;;27.24;43.88;95269.69;5024926;28;20206;-88
2023/09/04 11:22:46;;;;;;;4.88;2.17;;;;;;;27.10;43.31;95244.00;5028954;28;20222;-88
2023/09/04 11:25:12;;;;;;;3.90;2.20;;;;;;;26.98;44.59;95306.28;5028148;28;20202;-89
2023/09/04 11:27:41;;;;;;;2.33;2.08;;;;;;;27.01;45.53;95356.72;5018581;28;20198;-89
2023/09/04 11:30:08;;;;;;;2.35;2.15;;;;;;;27.15;45.79;95384.00;5029176;28;20209;-88
2023/09/04 11:32:38;;;;;;;2.10;2.00;;;;;;;27.25;45.55;95380.44;5028717;28;20230;-88
2023/09/04 11:35:08;;;;;;;2.15;2.05;;;;;;;27.05;43.56;95264.44;5027042;28;20226;-88
2023/09/04 11:37:34;;;;;;;2.30;2.10;;;;;;;27.29;43.88;95303.97;5028744;28;20633;-88